Time;durP1;ratioP1;P1;durP2;ratioP2;P2;SDS_P1;SDS_P2;PMS_P1;PMS_P2;Temp;Humidity;BMP_temperature;BMP_pressure;BME280_temperature;BME280_humidity;BME280_pressure;Samples;Min_cycle;Max_cycle;Signal;HPM_P1;HPM_P2
2022/01/03 00:01:34;;;;;;;0.90;0.70;;;23.00;73.70;;;;;;5052922;28;20477;-64
2022/01/03 00:04:00;;;;;;;1.30;1.00;;;23.00;73.80;;;;;;5052770;28;20807;-64
2022/01/03 00:06:29;;;;;;;0.97;0.77;;;23.00;73.70;;;;;;5053022;28;20443;-64
2022/01/03 00:08:57;;;;;;;1.10;0.80;;;23.00;73.70;;;;;;5053046;28;20443;-64
2022/01/03 00:11:24;;;;;;;1.17;0.80;;;23.00;73.70;;;;;;5052864;28;20449;-64
2022/01/03 00:13:51;;;;;;;1.10;0.80;;;23.00;73.70;;;;;;5052947;28;20442;-64
2022/01/03 00:16:19;;;;;;;1.00;0.80;;;23.00;73.70;;;;;;5052853;28;20447;-64
2022/01/03 00:18:46;;;;;;;1.23;0.80;;;23.00;73.60;;;;;;5052890;28;20430;-64
2022/01/03 00:21:14;;;;;;;1.07;0.80;;;23.00;73.60;;;;;;5052821;28;20433;-63
2022/01/03 00:23:49;;;;;;;1.00;0.70;;;23.00;73.70;;;;;;5052793;28;20445;-64
2022/01/03 00:26:23;;;;;;;1.00;0.80;;;23.10;73.70;;;;;;5052801;28;20437;-64
2022/01/03 00:28:54;;;;;;;2.03;1.00;;;23.00;73.60;;;;;;5052706;28;20434;-64
2022/01/03 00:31:21;;;;;;;1.10;0.90;;;23.00;73.60;;;;;;5052819;28;20438;-64
2022/01/03 00:33:51;;;;;;;1.00;0.80;;;23.00;73.60;;;;;;5052650;28;20825;-64
2022/01/03 00:36:21;;;;;;;1.43;0.90;;;23.00;73.50;;;;;;5052641;28;20484;-64
2022/01/03 00:38:49;;;;;;;1.00;0.80;;;23.00;73.50;;;;;;5052532;28;20446;-64
2022/01/03 00:41:16;;;;;;;1.20;1.00;;;23.00;73.50;;;;;;5054961;28;20798;-63
2022/01/03 00:43:43;;;;;;;1.00;0.70;;;23.00;73.50;;;;;;5056514;28;20449;-63
2022/01/03 00:46:10;;;;;;;1.03;0.90;;;23.00;73.50;;;;;;5056433;28;20439;-63
2022/01/03 00:48:38;;;;;;;1.10;0.80;;;23.00;73.40;;;;;;5056236;28;20441;-64
2022/01/03 00:51:04;;;;;;;1.00;0.70;;;23.00;73.40;;;;;;5056066;28;20445;-64
2022/01/03 00:53:31;;;;;;;1.20;0.80;;;23.00;73.40;;;;;;5056279;28;20494;-64
2022/01/03 00:56:09;;;;;;;1.23;1.13;;;23.00;74.20;;;;;;5056180;28;20445;-64
2022/01/03 00:58:40;;;;;;;1.10;0.80;;;23.00;73.30;;;;;;5056121;28;20835;-64
2022/01/03 01:01:07;;;;;;;1.00;0.60;;;23.00;73.30;;;;;;5056064;28;20445;-64
2022/01/03 01:03:36;;;;;;;1.10;0.80;;;23.00;73.30;;;;;;5055773;28;20492;-64
2022/01/03 01:06:05;;;;;;;1.20;0.90;;;23.00;73.30;;;;;;5055891;28;20947;-64
2022/01/03 01:08:34;;;;;;;1.20;0.90;;;23.00;73.30;;;;;;5055875;28;20445;-64
2022/01/03 01:11:03;;;;;;;1.00;0.80;;;23.00;73.30;;;;;;5055954;28;20437;-64
2022/01/03 01:13:31;;;;;;;1.20;0.90;;;23.00;73.30;;;;;;5055843;28;20442;-64
2022/01/03 01:15:58;;;;;;;1.27;1.17;;;23.00;73.20;;;;;;5055881;28;20438;-64
2022/01/03 01:18:26;;;;;;;1.00;0.70;;;23.00;73.20;;;;;;5055610;28;20480;-64
2022/01/03 01:20:53;;;;;;;1.57;1.40;;;23.00;73.20;;;;;;5055764;28;20475;-64
2022/01/03 01:23:20;;;;;;;1.50;1.00;;;23.00;73.20;;;;;;5055491;28;20496;-63
2022/01/03 01:28:32;;;;;;;1.20;0.80;;;23.00;73.20;;;;;;5055571;28;20416;-64
2022/01/03 01:31:01;;;;;;;1.10;0.80;;;23.00;73.20;;;;;;5055461;28;20441;-65
2022/01/03 01:33:34;;;;;;;1.40;0.80;;;23.00;73.20;;;;;;5055431;28;20913;-63
2022/01/03 01:36:03;;;;;;;1.20;0.80;;;23.00;73.20;;;;;;5055477;28;20436;-64
2022/01/03 01:38:32;;;;;;;1.00;0.80;;;23.00;73.20;;;;;;5055439;28;20473;-65
2022/01/03 01:41:01;;;;;;;1.10;1.00;;;23.00;73.20;;;;;;5055579;28;20809;-65
2022/01/03 01:43:36;;;;;;;1.23;0.70;;;23.00;73.10;;;;;;5055311;28;20485;-64
2022/01/03 01:46:08;;;;;;;1.00;0.87;;;23.00;73.10;;;;;;5055176;28;20429;-64
2022/01/03 01:48:37;;;;;;;1.00;0.80;;;23.00;73.10;;;;;;5055143;28;20437;-64
2022/01/03 01:51:06;;;;;;;1.40;1.00;;;23.00;73.10;;;;;;5055055;28;20444;-64
2022/01/03 01:53:40;;;;;;;1.10;0.90;;;23.00;73.20;;;;;;5054176;28;20956;-64
2022/01/03 01:56:14;;;;;;;1.00;0.80;;;23.00;73.10;;;;;;5055039;28;20473;-64
2022/01/03 01:58:55;;;;;;;1.23;0.93;;;23.00;73.10;;;;;;5054907;28;20440;-64
2022/01/03 02:01:25;;;;;;;1.13;0.70;;;23.00;73.00;;;;;;5055018;28;20951;-63
2022/01/03 02:03:58;;;;;;;1.50;0.90;;;23.00;73.10;;;;;;5054754;28;20489;-63
2022/01/03 02:06:40;;;;;;;1.40;1.00;;;23.00;73.10;;;;;;5054850;28;20948;-64
2022/01/03 02:09:09;;;;;;;1.00;0.80;;;23.00;73.00;;;;;;5054797;28;20503;-64
2022/01/03 02:11:50;;;;;;;1.40;0.90;;;23.00;73.10;;;;;;5054716;28;20441;-64
2022/01/03 02:14:19;;;;;;;1.30;0.87;;;23.00;73.00;;;;;;5054863;28;20434;-64
2022/01/03 02:16:46;;;;;;;1.10;0.80;;;22.90;72.80;;;;;;5054482;28;20473;-64
2022/01/03 02:19:13;;;;;;;1.20;0.90;;;23.00;73.00;;;;;;5054607;28;20442;-64
2022/01/03 02:21:41;;;;;;;1.20;1.00;;;23.00;72.90;;;;;;5054565;28;20490;-64
2022/01/03 02:24:09;;;;;;;1.10;0.80;;;23.00;72.90;;;;;;5054474;28;20500;-64
2022/01/03 02:26:36;;;;;;;1.30;0.90;;;23.00;72.90;;;;;;5054654;28;20445;-64
2022/01/03 02:29:04;;;;;;;1.30;1.10;;;23.00;72.90;;;;;;5054466;28;20515;-64
2022/01/03 02:31:31;;;;;;;1.00;0.87;;;23.00;72.90;;;;;;5054278;28;20909;-64
2022/01/03 02:34:00;;;;;;;1.37;0.90;;;23.00;72.80;;;;;;5054256;28;20467;-64
2022/01/03 02:36:28;;;;;;;1.40;0.83;;;23.00;72.90;;;;;;5054488;28;20446;-64
2022/01/03 02:38:56;;;;;;;1.30;0.90;;;23.00;72.80;;;;;;5054239;28;20778;-64
2022/01/03 02:41:23;;;;;;;1.10;0.80;;;23.00;72.80;;;;;;5054504;28;20441;-64
2022/01/03 02:43:50;;;;;;;1.40;1.00;;;22.90;72.70;;;;;;5054030;28;20492;-64
2022/01/03 02:46:17;;;;;;;1.33;0.90;;;22.90;72.60;;;;;;5053974;28;20441;-63
2022/01/03 02:48:44;;;;;;;1.10;0.80;;;22.90;72.60;;;;;;5054069;28;20437;-64
2022/01/03 02:51:11;;;;;;;1.20;0.90;;;22.90;72.60;;;;;;5053952;28;20450;-64
2022/01/03 02:53:38;;;;;;;1.40;1.10;;;22.90;72.70;;;;;;5054007;28;20446;-64
2022/01/03 02:56:07;;;;;;;1.03;0.73;;;22.90;72.60;;;;;;5053876;28;20921;-64
2022/01/03 02:58:33;;;;;;;1.57;0.90;;;22.90;72.60;;;;;;5053876;28;20918;-64
2022/01/03 03:01:00;;;;;;;1.50;1.00;;;22.90;72.60;;;;;;5053856;28;20785;-64
2022/01/03 03:03:27;;;;;;;1.67;0.97;;;22.90;72.60;;;;;;5053580;28;20508;-64
2022/01/03 03:05:54;;;;;;;1.30;0.97;;;22.90;72.50;;;;;;5053845;28;20449;-64
2022/01/03 03:08:21;;;;;;;2.57;1.00;;;22.90;72.60;;;;;;5053598;28;20529;-64
2022/01/03 03:10:47;;;;;;;1.47;0.80;;;22.90;72.50;;;;;;5053769;28;20441;-64
2022/01/03 03:13:15;;;;;;;1.67;1.10;;;22.90;72.60;;;;;;5053621;28;20835;-64
2022/01/03 03:15:42;;;;;;;1.23;0.80;;;22.90;72.50;;;;;;5053902;28;20437;-64
2022/01/03 03:18:09;;;;;;;1.40;0.90;;;22.90;72.60;;;;;;5053225;28;20478;-64
2022/01/03 03:20:37;;;;;;;1.50;0.90;;;22.90;72.50;;;;;;5053566;28;20464;-64
2022/01/03 03:23:04;;;;;;;1.37;0.90;;;22.90;72.50;;;;;;5053435;28;20485;-64
2022/01/03 03:25:33;;;;;;;1.60;1.00;;;22.90;72.50;;;;;;5053396;28;20443;-64
2022/01/03 03:28:03;;;;;;;1.30;1.00;;;22.90;72.50;;;;;;5053377;28;20444;-64
2022/01/03 03:30:34;;;;;;;1.60;1.20;;;22.90;72.50;;;;;;5053243;28;20439;-64
2022/01/03 03:33:05;;;;;;;2.57;1.10;;;22.90;72.50;;;;;;5053624;28;20435;-64
2022/01/03 03:35:32;;;;;;;2.27;1.00;;;22.90;72.50;;;;;;5053558;28;20801;-64
2022/01/03 03:37:59;;;;;;;1.20;1.07;;;22.90;72.40;;;;;;5053267;28;20437;-64
2022/01/03 03:40:26;;;;;;;1.60;1.10;;;22.90;72.50;;;;;;5053257;28;20449;-64
2022/01/03 03:42:53;;;;;;;1.13;0.87;;;22.90;72.50;;;;;;5053194;28;20483;-64
2022/01/03 03:45:20;;;;;;;1.10;1.00;;;22.90;72.50;;;;;;5053265;28;20917;-64
2022/01/03 03:47:49;;;;;;;1.37;1.20;;;22.90;72.40;;;;;;5053283;28;20441;-63
2022/01/03 03:50:16;;;;;;;1.30;0.90;;;22.90;72.40;;;;;;5053149;28;20433;-64
2022/01/03 03:52:43;;;;;;;1.20;0.90;;;22.90;72.40;;;;;;5053127;28;20450;-64
2022/01/03 03:55:11;;;;;;;1.13;0.90;;;22.90;72.40;;;;;;5053068;28;20491;-64
2022/01/03 03:57:38;;;;;;;1.10;0.73;;;22.90;72.40;;;;;;5053130;28;20445;-64
2022/01/03 04:00:06;;;;;;;1.10;0.80;;;22.90;72.40;;;;;;5053058;28;20469;-64
2022/01/03 04:02:33;;;;;;;1.27;0.97;;;22.90;72.40;;;;;;5053192;28;20437;-64
2022/01/03 04:05:02;;;;;;;1.67;1.00;;;22.90;72.30;;;;;;5052907;28;20465;-64
2022/01/03 04:07:28;;;;;;;1.63;0.93;;;22.90;72.40;;;;;;5052921;28;20491;-64
2022/01/03 04:09:55;;;;;;;1.10;0.90;;;22.90;72.40;;;;;;5052915;28;20445;-64
2022/01/03 04:12:22;;;;;;;1.27;1.00;;;22.90;72.30;;;;;;5053000;28;20434;-64
2022/01/03 04:14:48;;;;;;;1.67;0.90;;;22.90;72.30;;;;;;5053011;28;20434;-64
2022/01/03 04:17:15;;;;;;;1.20;0.90;;;22.90;72.30;;;;;;5056737;28;20472;-63
2022/01/03 04:19:42;;;;;;;1.50;0.80;;;22.90;72.30;;;;;;5056850;28;20430;-64
2022/01/03 04:22:10;;;;;;;1.83;0.90;;;22.90;72.20;;;;;;5056829;28;20441;-64
2022/01/03 04:24:37;;;;;;;1.20;0.87;;;22.90;72.30;;;;;;5056722;28;20488;-65
2022/01/03 04:27:04;;;;;;;1.20;1.00;;;22.90;72.30;;;;;;5056689;28;20444;-64
2022/01/03 04:29:31;;;;;;;1.33;1.00;;;22.90;72.50;;;;;;5056605;28;20459;-64
2022/01/03 04:31:57;;;;;;;1.43;1.10;;;22.90;72.20;;;;;;5056555;28;20445;-64
2022/01/03 04:34:24;;;;;;;1.10;1.00;;;22.90;72.20;;;;;;5056546;28;20469;-64
2022/01/03 04:36:51;;;;;;;1.30;0.90;;;22.90;72.20;;;;;;5056578;28;20434;-64
2022/01/03 04:39:19;;;;;;;1.53;0.90;;;22.90;72.10;;;;;;5056385;28;20446;-64
2022/01/03 04:41:46;;;;;;;1.77;1.00;;;22.90;72.20;;;;;;5056403;28;20495;-64
2022/01/03 04:44:12;;;;;;;1.50;1.00;;;22.90;72.20;;;;;;5056371;28;20480;-64
2022/01/03 04:46:39;;;;;;;1.30;1.00;;;22.90;72.20;;;;;;5056450;28;20442;-63
2022/01/03 04:49:08;;;;;;;1.10;1.00;;;22.90;72.10;;;;;;5056397;28;20924;-64
2022/01/03 04:51:35;;;;;;;1.30;0.87;;;22.90;72.10;;;;;;5056285;28;20438;-64
2022/01/03 04:54:02;;;;;;;1.73;1.00;;;22.90;72.10;;;;;;5064739;28;20929;-65
2022/01/03 04:56:33;;;;;;;1.20;0.90;;;22.90;72.10;;;;;;5064890;28;20524;-64
2022/01/03 04:59:00;;;;;;;2.53;0.90;;;22.90;72.10;;;;;;5065839;28;20433;-65
2022/01/03 05:01:27;;;;;;;1.50;1.10;;;22.90;72.10;;;;;;5067041;28;21018;-64
2022/01/03 05:03:54;;;;;;;1.80;1.00;;;22.90;72.10;;;;;;5064860;28;20496;-65
2022/01/03 05:06:22;;;;;;;1.27;0.93;;;22.90;72.00;;;;;;5065512;28;20471;-64
2022/01/03 05:08:49;;;;;;;1.10;0.83;;;22.90;72.10;;;;;;5066452;28;20437;-64
2022/01/03 05:11:16;;;;;;;1.20;1.03;;;22.90;72.10;;;;;;5060887;28;20443;-63
2022/01/03 05:13:44;;;;;;;1.10;0.80;;;22.90;72.00;;;;;;5054575;28;20441;-64
2022/01/03 05:16:11;;;;;;;1.63;1.00;;;22.90;72.00;;;;;;5054599;28;20442;-63
2022/01/03 05:18:38;;;;;;;1.50;0.97;;;22.90;72.00;;;;;;5062231;28;20465;-64
2022/01/03 05:21:05;;;;;;;1.67;1.00;;;22.90;72.10;;;;;;5065071;28;20780;-65
2022/01/03 05:23:32;;;;;;;1.17;0.90;;;22.90;72.10;;;;;;5066346;28;20553;-64
2022/01/03 05:25:59;;;;;;;1.30;1.10;;;22.90;72.00;;;;;;5065194;28;20921;-64
2022/01/03 05:28:26;;;;;;;1.40;1.30;;;22.90;72.10;;;;;;5063438;28;20429;-64
2022/01/03 05:30:54;;;;;;;1.97;1.00;;;22.90;72.10;;;;;;5069250;28;20437;-64
2022/01/03 05:33:21;;;;;;;1.30;1.10;;;22.90;72.10;;;;;;5063748;28;20524;-64
2022/01/03 05:35:48;;;;;;;2.03;1.10;;;22.90;72.10;;;;;;5063954;28;20439;-64
2022/01/03 05:38:15;;;;;;;1.83;1.17;;;22.90;72.10;;;;;;5066817;28;20446;-64
2022/01/03 05:40:42;;;;;;;1.70;1.10;;;22.90;72.10;;;;;;5065186;28;20463;-65
2022/01/03 05:43:10;;;;;;;1.60;1.10;;;22.90;72.10;;;;;;5066082;28;20469;-65
2022/01/03 05:45:37;;;;;;;1.30;0.97;;;22.90;72.10;;;;;;5064813;28;20445;-65
2022/01/03 05:48:06;;;;;;;1.40;1.13;;;22.90;72.10;;;;;;5064626;28;20451;-65
2022/01/03 05:50:33;;;;;;;1.07;0.80;;;22.90;72.10;;;;;;5065985;28;20936;-64
2022/01/03 05:53:00;;;;;;;1.00;0.77;;;22.90;72.10;;;;;;5064780;28;20466;-64
2022/01/03 05:55:27;;;;;;;1.17;0.90;;;22.90;72.10;;;;;;5063999;28;20447;-64
2022/01/03 05:57:54;;;;;;;1.37;1.00;;;22.90;72.20;;;;;;5064072;28;20470;-64
2022/01/03 06:00:24;;;;;;;1.10;0.80;;;22.90;72.10;;;;;;5065089;28;20795;-64
2022/01/03 06:02:54;;;;;;;1.07;0.80;;;22.90;72.10;;;;;;5065791;28;20429;-65
2022/01/03 06:05:40;;;;;;;1.50;1.17;;;22.90;72.10;;;;;;5064698;28;20488;-64
2022/01/03 06:08:08;;;;;;;2.90;1.47;;;22.90;72.00;;;;;;5065368;28;20538;-64
2022/01/03 06:10:39;;;;;;;1.20;0.90;;;22.90;72.10;;;;;;5063670;28;20434;-65
2022/01/03 06:13:06;;;;;;;1.27;0.90;;;22.90;72.00;;;;;;5063818;28;20437;-64
2022/01/03 06:15:33;;;;;;;1.83;1.23;;;22.90;72.00;;;;;;5065545;28;20466;-65
2022/01/03 06:18:00;;;;;;;1.33;0.93;;;22.90;72.00;;;;;;5065245;28;20494;-64
2022/01/03 06:20:28;;;;;;;1.40;0.90;;;22.90;72.00;;;;;;5065256;28;20513;-65
2022/01/03 06:22:55;;;;;;;1.07;0.90;;;22.90;72.00;;;;;;5063426;28;20509;-64
2022/01/03 06:25:22;;;;;;;1.43;1.00;;;22.90;72.00;;;;;;5064046;28;20560;-65
2022/01/03 06:27:49;;;;;;;1.40;1.10;;;22.90;72.00;;;;;;5065088;28;20925;-64
2022/01/03 06:30:16;;;;;;;1.50;0.90;;;22.90;72.00;;;;;;5063423;28;20430;-64
2022/01/03 06:32:43;;;;;;;1.13;0.80;;;22.90;72.10;;;;;;5063901;28;20524;-64
2022/01/03 06:35:10;;;;;;;1.50;0.93;;;22.90;72.00;;;;;;5065111;28;20464;-64
2022/01/03 06:37:38;;;;;;;1.90;1.00;;;22.90;72.00;;;;;;5063122;28;20487;-65
2022/01/03 06:40:07;;;;;;;1.50;1.10;;;22.90;72.00;;;;;;5063568;28;20467;-65
2022/01/03 06:42:34;;;;;;;1.10;0.80;;;22.90;72.00;;;;;;5064789;28;20441;-65
2022/01/03 06:45:01;;;;;;;1.70;0.90;;;22.90;72.00;;;;;;5063764;28;20918;-65
2022/01/03 06:47:28;;;;;;;1.20;0.90;;;22.90;72.00;;;;;;5063084;28;20892;-65
2022/01/03 06:49:55;;;;;;;1.30;0.83;;;22.90;72.10;;;;;;5065756;28;20517;-64
2022/01/03 06:52:23;;;;;;;1.43;0.90;;;22.90;72.00;;;;;;5063405;28;20441;-65
2022/01/03 06:54:51;;;;;;;1.30;0.90;;;22.90;72.00;;;;;;5064802;28;20453;-64
2022/01/03 06:57:18;;;;;;;1.77;0.80;;;22.90;72.00;;;;;;5063520;28;20846;-64
2022/01/03 06:59:45;;;;;;;1.43;0.87;;;22.90;72.00;;;;;;5063421;28;20441;-64
2022/01/03 07:02:12;;;;;;;2.00;0.93;;;22.90;72.00;;;;;;5064905;28;20525;-65
2022/01/03 07:04:39;;;;;;;1.30;0.90;;;22.90;72.00;;;;;;5061962;28;20489;-64
2022/01/03 07:07:06;;;;;;;1.10;0.80;;;22.90;72.10;;;;;;5063875;28;20937;-65
2022/01/03 07:09:33;;;;;;;1.00;0.77;;;22.90;72.00;;;;;;5062454;28;20466;-64
2022/01/03 07:12:02;;;;;;;1.60;0.93;;;22.90;72.00;;;;;;5063596;28;20445;-64
2022/01/03 07:20:00;;;;;;;1.20;0.90;;;22.90;72.00;;;;;;5062837;28;20460;-64
2022/01/03 07:22:28;;;;;;;1.30;0.93;;;22.90;72.10;;;;;;5062373;28;20441;-64
2022/01/03 07:24:55;;;;;;;0.97;0.80;;;22.90;72.00;;;;;;5062314;28;20481;-65
2022/01/03 07:27:23;;;;;;;1.33;0.80;;;22.90;72.10;;;;;;5063201;28;20433;-64
2022/01/03 07:29:51;;;;;;;1.30;0.90;;;22.90;72.00;;;;;;5064230;28;20509;-64
2022/01/03 07:32:18;;;;;;;1.47;1.00;;;22.90;72.00;;;;;;5062765;28;20439;-65
2022/01/03 07:34:45;;;;;;;1.20;1.00;;;22.90;72.00;;;;;;5062741;28;20513;-65
2022/01/03 07:37:12;;;;;;;1.30;0.90;;;22.90;71.90;;;;;;5063754;28;20530;-65
2022/01/03 07:39:39;;;;;;;1.50;0.90;;;22.90;71.90;;;;;;5068217;28;20480;-64
2022/01/03 07:42:06;;;;;;;1.43;0.90;;;22.90;71.90;;;;;;5073563;28;20458;-64
2022/01/03 07:44:34;;;;;;;1.30;1.00;;;22.90;71.90;;;;;;5073081;28;20491;-63
2022/01/03 07:47:01;;;;;;;1.17;0.80;;;22.90;72.00;;;;;;5073178;28;20902;-64
2022/01/03 07:49:28;;;;;;;1.80;1.10;;;22.90;71.90;;;;;;5072811;28;20433;-63
2022/01/03 07:51:56;;;;;;;1.20;0.87;;;22.90;71.90;;;;;;5072579;28;20925;-63
2022/01/03 07:54:23;;;;;;;1.00;0.80;;;22.90;71.90;;;;;;5073078;28;20478;-63
2022/01/03 07:56:50;;;;;;;1.57;0.90;;;22.90;71.90;;;;;;5073064;28;20442;-63
2022/01/03 07:59:16;;;;;;;1.37;0.90;;;23.00;72.10;;;;;;5073258;28;20440;-63
2022/01/03 08:01:44;;;;;;;1.50;1.10;;;22.90;71.90;;;;;;5073250;28;20777;-63
2022/01/03 08:04:11;;;;;;;1.47;0.70;;;22.90;71.90;;;;;;5072850;28;20487;-63
2022/01/03 08:06:38;;;;;;;1.40;1.30;;;22.90;71.90;;;;;;5073004;28;20442;-63
2022/01/03 08:09:04;;;;;;;1.00;0.70;;;22.90;71.90;;;;;;5072917;28;20444;-63
2022/01/03 08:11:31;;;;;;;1.10;0.80;;;22.90;71.90;;;;;;5064943;28;20445;-64
2022/01/03 08:13:58;;;;;;;1.10;0.80;;;22.90;71.90;;;;;;5057209;28;20441;-63
2022/01/03 08:16:24;;;;;;;1.70;1.17;;;22.90;71.90;;;;;;5054166;28;20442;-64
2022/01/03 08:18:52;;;;;;;1.27;1.00;;;23.00;72.00;;;;;;5071635;28;20921;-63
2022/01/03 08:21:19;;;;;;;1.40;0.90;;;23.00;72.00;;;;;;5070871;28;20452;-63
2022/01/03 08:23:46;;;;;;;1.77;1.00;;;22.90;71.90;;;;;;5072661;28;20444;-64
2022/01/03 08:26:12;;;;;;;1.93;1.43;;;22.90;71.90;;;;;;5072798;28;20437;-63
2022/01/03 08:28:39;;;;;;;1.10;0.80;;;22.90;71.90;;;;;;5072698;28;20433;-64
2022/01/03 08:31:06;;;;;;;1.20;1.00;;;22.90;72.00;;;;;;5072778;28;20441;-63
2022/01/03 08:33:33;;;;;;;1.10;0.87;;;22.90;72.00;;;;;;5072907;28;20802;-63
2022/01/03 08:36:01;;;;;;;1.10;0.90;;;23.00;72.10;;;;;;5072741;28;20452;-63
2022/01/03 08:38:28;;;;;;;1.17;0.90;;;23.00;72.20;;;;;;5072948;28;20441;-64
2022/01/03 08:40:55;;;;;;;1.47;1.10;;;23.00;72.20;;;;;;5072529;28;20916;-68
2022/01/03 08:43:21;;;;;;;1.50;1.20;;;22.90;72.90;;;;;;5072647;28;20436;-63
2022/01/03 08:45:48;;;;;;;8.80;1.70;;;22.90;73.60;;;;;;5072440;28;20492;-63
2022/01/03 08:48:15;;;;;;;6.83;1.97;;;22.80;73.40;;;;;;5072617;28;20464;-63
2022/01/03 08:50:41;;;;;;;2.97;1.50;;;22.80;73.70;;;;;;5072587;28;20448;-65
2022/01/03 08:53:11;;;;;;;4.53;1.37;;;22.80;74.20;;;;;;5072612;28;20432;-65
2022/01/03 08:55:38;;;;;;;3.10;1.33;;;22.70;74.30;;;;;;5072556;28;20444;-65
2022/01/03 08:58:05;;;;;;;3.40;1.17;;;22.70;74.30;;;;;;5071585;28;20445;-64
2022/01/03 09:00:31;;;;;;;1.63;1.37;;;22.70;74.40;;;;;;5072564;28;20440;-66
2022/01/03 09:02:58;;;;;;;1.80;1.70;;;22.70;74.50;;;;;;5075795;28;20436;-66
2022/01/03 09:05:25;;;;;;;3.60;1.90;;;22.70;74.50;;;;;;5075853;28;20495;-68
2022/01/03 09:07:51;;;;;;;8.47;2.37;;;22.70;74.40;;;;;;5075894;28;20807;-66
2022/01/03 09:10:19;;;;;;;12.50;2.57;;;22.80;74.10;;;;;;5076037;28;20437;-66
2022/01/03 09:12:46;;;;;;;17.40;3.37;;;22.70;73.50;;;;;;5075936;28;20428;-72
2022/01/03 09:15:13;;;;;;;7.50;3.03;;;22.60;73.50;;;;;;5075845;28;20449;-65
2022/01/03 09:17:40;;;;;;;9.80;3.60;;;22.60;74.30;;;;;;5075652;28;20468;-71
2022/01/03 09:20:08;;;;;;;10.30;4.33;;;22.60;74.40;;;;;;5075733;28;20441;-65
2022/01/03 09:22:40;;;;;;;10.73;3.90;;;22.60;74.30;;;;;;5075638;28;20436;-65
